sensor_id;sensor_type;location;lat;lon;timestamp;pressure;altitude;pressure_sealevel;temperature
74539;BMP180;63087;51.086;-115.332;2022-09-09T00:12:47;86720.60;;;17.60
74539;BMP180;63087;51.086;-115.332;2022-09-09T00:15:36;86725.00;;;17.56
74539;BMP180;63087;51.086;-115.332;2022-09-09T00:18:32;86728.80;;;17.50
74539;BMP180;63087;51.086;-115.332;2022-09-09T00:21:07;86731.60;;;17.40
74539;BMP180;63087;51.086;-115.332;2022-09-09T00:23:48;86727.00;;;17.24
74539;BMP180;63087;51.086;-115.332;2022-09-09T00:26:45;86726.40;;;17.10
74539;BMP180;63087;51.086;-115.332;2022-09-09T00:29:41;86721.20;;;17.00
74539;BMP180;63087;51.086;-115.332;2022-09-09T00:32:33;86722.20;;;16.92
74539;BMP180;63087;51.086;-115.332;2022-09-09T00:38:23;86733.20;;;16.60
74539;BMP180;63087;51.086;-115.332;2022-09-09T00:40:53;86728.40;;;16.40
74539;BMP180;63087;51.086;-115.332;2022-09-09T00:43:30;86726.60;;;16.20
74539;BMP180;63087;51.086;-115.332;2022-09-09T00:49:15;86731.00;;;15.88
74539;BMP180;63087;51.086;-115.332;2022-09-09T00:57:36;86734.00;;;15.50
74539;BMP180;63087;51.086;-115.332;2022-09-09T01:06:32;86752.40;;;15.16
74539;BMP180;63087;51.086;-115.332;2022-09-09T01:09:32;86757.00;;;14.98
74539;BMP180;63087;51.086;-115.332;2022-09-09T01:14:56;86763.00;;;14.60
74539;BMP180;63087;51.086;-115.332;2022-09-09T01:18:04;86760.60;;;14.46
74539;BMP180;63087;51.086;-115.332;2022-09-09T01:23:49;86767.40;;;14.10
74539;BMP180;63087;51.086;-115.332;2022-09-09T01:26:32;86775.60;;;14.00
74539;BMP180;63087;51.086;-115.332;2022-09-09T01:29:02;86773.20;;;13.80
74539;BMP180;63087;51.086;-115.332;2022-09-09T01:31:40;86776.80;;;13.70
74539;BMP180;63087;51.086;-115.332;2022-09-09T01:34:15;86777.60;;;13.60
74539;BMP180;63087;51.086;-115.332;2022-09-09T01:37:05;86779.40;;;13.40
74539;BMP180;63087;51.086;-115.332;2022-09-09T01:39:36;86778.80;;;13.30
74539;BMP180;63087;51.086;-115.332;2022-09-09T01:42:08;86778.40;;;13.20
74539;BMP180;63087;51.086;-115.332;2022-09-09T01:44:37;86783.00;;;13.10
74539;BMP180;63087;51.086;-115.332;2022-09-09T01:47:05;86786.40;;;13.00
74539;BMP180;63087;51.086;-115.332;2022-09-09T01:49:33;86791.40;;;12.90
74539;BMP180;63087;51.086;-115.332;2022-09-09T01:52:00;86787.20;;;12.80
74539;BMP180;63087;51.086;-115.332;2022-09-09T01:54:34;86785.00;;;12.70
74539;BMP180;63087;51.086;-115.332;2022-09-09T01:57:25;86793.20;;;12.60
74539;BMP180;63087;51.086;-115.332;2022-09-09T02:00:06;86793.80;;;12.50
74539;BMP180;63087;51.086;-115.332;2022-09-09T02:11:28;86800.40;;;11.90
74539;BMP180;63087;51.086;-115.332;2022-09-09T02:14:20;86803.00;;;11.80
74539;BMP180;63087;51.086;-115.332;2022-09-09T02:17:16;86799.20;;;11.60
74539;BMP180;63087;51.086;-115.332;2022-09-09T02:20:03;86798.40;;;11.50
74539;BMP180;63087;51.086;-115.332;2022-09-09T02:22:33;86798.60;;;11.40
74539;BMP180;63087;51.086;-115.332;2022-09-09T02:25:02;86800.20;;;11.30
74539;BMP180;63087;51.086;-115.332;2022-09-09T02:27:32;86802.60;;;11.20
74539;BMP180;63087;51.086;-115.332;2022-09-09T02:30:01;86804.80;;;11.06
74539;BMP180;63087;51.086;-115.332;2022-09-09T02:32:32;86809.80;;;10.98
74539;BMP180;63087;51.086;-115.332;2022-09-09T02:35:21;86813.20;;;10.86
74539;BMP180;63087;51.086;-115.332;2022-09-09T02:37:56;86820.20;;;10.78
74539;BMP180;63087;51.086;-115.332;2022-09-09T02:40:26;86821.60;;;10.60
74539;BMP180;63087;51.086;-115.332;2022-09-09T02:42:55;86821.40;;;10.52
74539;BMP180;63087;51.086;-115.332;2022-09-09T02:45:37;86819.80;;;10.42
74539;BMP180;63087;51.086;-115.332;2022-09-09T02:48:20;86824.20;;;10.40
74539;BMP180;63087;51.086;-115.332;2022-09-09T02:54:33;86833.00;;;10.10
74539;BMP180;63087;51.086;-115.332;2022-09-09T02:57:30;86834.20;;;10.00
74539;BMP180;63087;51.086;-115.332;2022-09-09T02:59:59;86836.00;;;9.90
74539;BMP180;63087;51.086;-115.332;2022-09-09T03:02:28;86840.40;;;9.80
74539;BMP180;63087;51.086;-115.332;2022-09-09T03:04:55;86838.20;;;9.70
74539;BMP180;63087;51.086;-115.332;2022-09-09T03:07:23;86836.60;;;9.70
74539;BMP180;63087;51.086;-115.332;2022-09-09T03:09:50;86834.80;;;9.60
74539;BMP180;63087;51.086;-115.332;2022-09-09T03:12:18;86834.20;;;9.50
74539;BMP180;63087;51.086;-115.332;2022-09-09T03:14:45;86840.00;;;9.48
74539;BMP180;63087;51.086;-115.332;2022-09-09T03:17:13;86833.00;;;9.40
74539;BMP180;63087;51.086;-115.332;2022-09-09T03:19:41;86835.40;;;9.30
74539;BMP180;63087;51.086;-115.332;2022-09-09T03:22:10;86831.60;;;9.20
74539;BMP180;63087;51.086;-115.332;2022-09-09T03:24:38;86831.20;;;9.20
74539;BMP180;63087;51.086;-115.332;2022-09-09T03:27:06;86836.80;;;9.10
74539;BMP180;63087;51.086;-115.332;2022-09-09T03:29:34;86840.40;;;9.06
74539;BMP180;63087;51.086;-115.332;2022-09-09T03:32:01;86840.80;;;9.00
74539;BMP180;63087;51.086;-115.332;2022-09-09T03:34:30;86841.00;;;8.90
74539;BMP180;63087;51.086;-115.332;2022-09-09T03:36:57;86841.80;;;8.90
74539;BMP180;63087;51.086;-115.332;2022-09-09T03:39:25;86841.20;;;8.80
74539;BMP180;63087;51.086;-115.332;2022-09-09T03:41:59;86845.00;;;8.80
74539;BMP180;63087;51.086;-115.332;2022-09-09T03:44:26;86845.40;;;8.70
74539;BMP180;63087;51.086;-115.332;2022-09-09T03:46:53;86848.00;;;8.62
74539;BMP180;63087;51.086;-115.332;2022-09-09T03:49:20;86845.00;;;8.60
74539;BMP180;63087;51.086;-115.332;2022-09-09T03:51:48;86844.60;;;8.58
74539;BMP180;63087;51.086;-115.332;2022-09-09T03:54:15;86841.80;;;8.50
74539;BMP180;63087;51.086;-115.332;2022-09-09T03:56:43;86845.00;;;8.40
74539;BMP180;63087;51.086;-115.332;2022-09-09T03:59:11;86845.80;;;8.40
74539;BMP180;63087;51.086;-115.332;2022-09-09T04:01:38;86850.00;;;8.30
74539;BMP180;63087;51.086;-115.332;2022-09-09T04:04:06;86851.20;;;8.30
74539;BMP180;63087;51.086;-115.332;2022-09-09T04:06:34;86850.00;;;8.30
74539;BMP180;63087;51.086;-115.332;2022-09-09T04:09:01;86851.40;;;8.20
74539;BMP180;63087;51.086;-115.332;2022-09-09T04:11:30;86848.60;;;8.20
74539;BMP180;63087;51.086;-115.332;2022-09-09T04:13:57;86845.80;;;8.20
74539;BMP180;63087;51.086;-115.332;2022-09-09T04:16:25;86850.20;;;8.16
74539;BMP180;63087;51.086;-115.332;2022-09-09T04:18:52;86845.00;;;8.10
74539;BMP180;63087;51.086;-115.332;2022-09-09T04:21:19;86854.60;;;8.00
74539;BMP180;63087;51.086;-115.332;2022-09-09T04:23:47;86857.00;;;7.90
74539;BMP180;63087;51.086;-115.332;2022-09-09T04:26:15;86855.40;;;7.80
74539;BMP180;63087;51.086;-115.332;2022-09-09T04:28:42;86859.80;;;7.80
74539;BMP180;63087;51.086;-115.332;2022-09-09T04:31:20;86860.20;;;7.80
74539;BMP180;63087;51.086;-115.332;2022-09-09T04:33:52;86860.40;;;7.72
74539;BMP180;63087;51.086;-115.332;2022-09-09T04:36:19;86864.00;;;7.70
74539;BMP180;63087;51.086;-115.332;2022-09-09T04:38:46;86864.60;;;7.70
74539;BMP180;63087;51.086;-115.332;2022-09-09T04:41:15;86874.00;;;7.70
74539;BMP180;63087;51.086;-115.332;2022-09-09T04:43:43;86874.00;;;7.60
74539;BMP180;63087;51.086;-115.332;2022-09-09T04:46:10;86878.20;;;7.60
74539;BMP180;63087;51.086;-115.332;2022-09-09T04:48:37;86877.40;;;7.60
74539;BMP180;63087;51.086;-115.332;2022-09-09T04:51:07;86881.40;;;7.56
74539;BMP180;63087;51.086;-115.332;2022-09-09T04:53:36;86887.00;;;7.50
74539;BMP180;63087;51.086;-115.332;2022-09-09T04:56:15;86890.60;;;7.50
74539;BMP180;63087;51.086;-115.332;2022-09-09T04:58:43;86889.20;;;7.50
74539;BMP180;63087;51.086;-115.332;2022-09-09T05:01:19;86894.00;;;7.50
74539;BMP180;63087;51.086;-115.332;2022-09-09T05:03:48;86897.40;;;7.50
74539;BMP180;63087;51.086;-115.332;2022-09-09T05:06:21;86896.00;;;7.50
74539;BMP180;63087;51.086;-115.332;2022-09-09T05:08:49;86894.40;;;7.60
74539;BMP180;63087;51.086;-115.332;2022-09-09T05:11:29;86899.00;;;7.60
74539;BMP180;63087;51.086;-115.332;2022-09-09T05:13:56;86901.00;;;7.70
74539;BMP180;63087;51.086;-115.332;2022-09-09T05:16:24;86905.20;;;7.72
74539;BMP180;63087;51.086;-115.332;2022-09-09T05:18:51;86906.20;;;7.80
74539;BMP180;63087;51.086;-115.332;2022-09-09T05:21:21;86905.60;;;7.90
74539;BMP180;63087;51.086;-115.332;2022-09-09T05:23:50;86902.40;;;7.90
74539;BMP180;63087;51.086;-115.332;2022-09-09T05:26:21;86901.80;;;7.90
74539;BMP180;63087;51.086;-115.332;2022-09-09T05:28:48;86900.20;;;8.00
74539;BMP180;63087;51.086;-115.332;2022-09-09T05:31:18;86899.80;;;8.00
74539;BMP180;63087;51.086;-115.332;2022-09-09T05:33:48;86900.40;;;8.08
74539;BMP180;63087;51.086;-115.332;2022-09-09T05:36:19;86896.00;;;8.10
74539;BMP180;63087;51.086;-115.332;2022-09-09T05:38:48;86898.20;;;8.10
74539;BMP180;63087;51.086;-115.332;2022-09-09T05:41:16;86898.80;;;8.20
74539;BMP180;63087;51.086;-115.332;2022-09-09T05:43:44;86900.20;;;8.20
74539;BMP180;63087;51.086;-115.332;2022-09-09T05:46:20;86897.60;;;8.20
74539;BMP180;63087;51.086;-115.332;2022-09-09T05:48:49;86903.40;;;8.20
74539;BMP180;63087;51.086;-115.332;2022-09-09T05:51:21;86907.80;;;8.24
74539;BMP180;63087;51.086;-115.332;2022-09-09T05:53:50;86906.20;;;8.30
74539;BMP180;63087;51.086;-115.332;2022-09-09T05:56:20;86911.80;;;8.30
74539;BMP180;63087;51.086;-115.332;2022-09-09T05:58:55;86918.20;;;8.30
74539;BMP180;63087;51.086;-115.332;2022-09-09T06:01:35;86913.00;;;8.38
74539;BMP180;63087;51.086;-115.332;2022-09-09T06:04:03;86922.60;;;8.40
74539;BMP180;63087;51.086;-115.332;2022-09-09T06:06:37;86929.20;;;8.50
74539;BMP180;63087;51.086;-115.332;2022-09-09T06:09:08;86936.80;;;8.50
74539;BMP180;63087;51.086;-115.332;2022-09-09T06:11:41;86954.20;;;8.60
74539;BMP180;63087;51.086;-115.332;2022-09-09T06:14:10;86958.40;;;8.60
74539;BMP180;63087;51.086;-115.332;2022-09-09T06:16:37;86983.80;;;8.70
74539;BMP180;63087;51.086;-115.332;2022-09-09T06:19:04;86992.60;;;8.70
74539;BMP180;63087;51.086;-115.332;2022-09-09T06:21:34;87009.60;;;8.70
74539;BMP180;63087;51.086;-115.332;2022-09-09T06:24:05;87025.20;;;8.70
74539;BMP180;63087;51.086;-115.332;2022-09-09T06:26:37;87041.20;;;8.60
74539;BMP180;63087;51.086;-115.332;2022-09-09T06:29:09;87051.00;;;8.60
74539;BMP180;63087;51.086;-115.332;2022-09-09T06:31:37;87067.60;;;8.50
74539;BMP180;63087;51.086;-115.332;2022-09-09T06:34:08;87070.60;;;8.50
74539;BMP180;63087;51.086;-115.332;2022-09-09T06:36:38;87079.60;;;8.42
74539;BMP180;63087;51.086;-115.332;2022-09-09T06:39:07;87090.80;;;8.40
74539;BMP180;63087;51.086;-115.332;2022-09-09T06:41:37;87103.20;;;8.30
74539;BMP180;63087;51.086;-115.332;2022-09-09T06:44:05;87107.80;;;8.24
74539;BMP180;63087;51.086;-115.332;2022-09-09T06:46:32;87113.20;;;8.24
74539;BMP180;63087;51.086;-115.332;2022-09-09T06:49:00;87118.80;;;8.24
74539;BMP180;63087;51.086;-115.332;2022-09-09T06:51:31;87126.00;;;8.30
74539;BMP180;63087;51.086;-115.332;2022-09-09T06:54:01;87131.60;;;8.30
74539;BMP180;63087;51.086;-115.332;2022-09-09T06:56:37;87135.80;;;8.20
74539;BMP180;63087;51.086;-115.332;2022-09-09T06:59:08;87140.20;;;8.20
74539;BMP180;63087;51.086;-115.332;2022-09-09T07:01:41;87136.20;;;8.20
74539;BMP180;63087;51.086;-115.332;2022-09-09T07:04:10;87133.20;;;8.10
74539;BMP180;63087;51.086;-115.332;2022-09-09T07:06:44;87131.00;;;8.10
74539;BMP180;63087;51.086;-115.332;2022-09-09T07:09:14;87129.80;;;8.00
74539;BMP180;63087;51.086;-115.332;2022-09-09T07:11:48;87130.00;;;7.90
74539;BMP180;63087;51.086;-115.332;2022-09-09T07:14:19;87130.60;;;7.80
74539;BMP180;63087;51.086;-115.332;2022-09-09T07:16:47;87131.40;;;7.60
74539;BMP180;63087;51.086;-115.332;2022-09-09T07:19:15;87129.80;;;7.48
74539;BMP180;63087;51.086;-115.332;2022-09-09T07:21:43;87130.00;;;7.30
74539;BMP180;63087;51.086;-115.332;2022-09-09T07:24:11;87134.20;;;7.12
74539;BMP180;63087;51.086;-115.332;2022-09-09T07:26:39;87132.80;;;7.00
74539;BMP180;63087;51.086;-115.332;2022-09-09T07:29:07;87137.40;;;7.00
74539;BMP180;63087;51.086;-115.332;2022-09-09T07:31:38;87138.00;;;6.90
74539;BMP180;63087;51.086;-115.332;2022-09-09T07:34:06;87142.00;;;6.80
74539;BMP180;63087;51.086;-115.332;2022-09-09T07:36:37;87140.40;;;6.78
74539;BMP180;63087;51.086;-115.332;2022-09-09T07:39:10;87141.00;;;6.70
74539;BMP180;63087;51.086;-115.332;2022-09-09T07:41:48;87137.80;;;6.70
74539;BMP180;63087;51.086;-115.332;2022-09-09T07:44:19;87135.00;;;6.70
74539;BMP180;63087;51.086;-115.332;2022-09-09T07:46:47;87131.60;;;6.60
74539;BMP180;63087;51.086;-115.332;2022-09-09T07:49:15;87137.40;;;6.60
74539;BMP180;63087;51.086;-115.332;2022-09-09T07:51:45;87139.60;;;6.50
74539;BMP180;63087;51.086;-115.332;2022-09-09T07:54:16;87138.00;;;6.50
74539;BMP180;63087;51.086;-115.332;2022-09-09T07:56:47;87134.00;;;6.50
74539;BMP180;63087;51.086;-115.332;2022-09-09T07:59:16;87134.20;;;6.50
74539;BMP180;63087;51.086;-115.332;2022-09-09T08:01:47;87133.00;;;6.50
74539;BMP180;63087;51.086;-115.332;2022-09-09T08:04:18;87134.60;;;6.50
74539;BMP180;63087;51.086;-115.332;2022-09-09T08:06:50;87135.40;;;6.40
74539;BMP180;63087;51.086;-115.332;2022-09-09T08:09:20;87137.40;;;6.40
74539;BMP180;63087;51.086;-115.332;2022-09-09T08:11:48;87138.40;;;6.30
74539;BMP180;63087;51.086;-115.332;2022-09-09T08:14:15;87133.60;;;6.20
74539;BMP180;63087;51.086;-115.332;2022-09-09T08:16:45;87129.80;;;6.18
74539;BMP180;63087;51.086;-115.332;2022-09-09T08:19:13;87129.00;;;6.10
74539;BMP180;63087;51.086;-115.332;2022-09-09T08:21:45;87133.00;;;6.00
74539;BMP180;63087;51.086;-115.332;2022-09-09T08:24:13;87135.60;;;6.00
74539;BMP180;63087;51.086;-115.332;2022-09-09T08:26:46;87135.80;;;6.00
74539;BMP180;63087;51.086;-115.332;2022-09-09T08:29:16;87136.20;;;6.00
74539;BMP180;63087;51.086;-115.332;2022-09-09T08:31:49;87136.20;;;6.00
74539;BMP180;63087;51.086;-115.332;2022-09-09T08:34:17;87132.20;;;6.00
74539;BMP180;63087;51.086;-115.332;2022-09-09T08:36:50;87125.60;;;6.00
74539;BMP180;63087;51.086;-115.332;2022-09-09T08:39:20;87122.00;;;6.00
74539;BMP180;63087;51.086;-115.332;2022-09-09T08:45:31;87123.60;;;5.90
74539;BMP180;63087;51.086;-115.332;2022-09-09T08:51:03;87122.60;;;5.80
74539;BMP180;63087;51.086;-115.332;2022-09-09T08:53:47;87119.80;;;5.80
74539;BMP180;63087;51.086;-115.332;2022-09-09T08:56:23;87117.40;;;5.80
74539;BMP180;63087;51.086;-115.332;2022-09-09T08:58:54;87117.00;;;5.80
74539;BMP180;63087;51.086;-115.332;2022-09-09T09:07:08;87114.60;;;5.88
74539;BMP180;63087;51.086;-115.332;2022-09-09T09:10:00;87116.00;;;5.90
74539;BMP180;63087;51.086;-115.332;2022-09-09T09:12:40;87113.60;;;5.82
74539;BMP180;63087;51.086;-115.332;2022-09-09T09:15:30;87115.80;;;5.80
74539;BMP180;63087;51.086;-115.332;2022-09-09T09:17:58;87116.60;;;5.80
74539;BMP180;63087;51.086;-115.332;2022-09-09T09:23:24;87113.40;;;5.90
74539;BMP180;63087;51.086;-115.332;2022-09-09T09:25:58;87109.20;;;5.90
74539;BMP180;63087;51.086;-115.332;2022-09-09T09:28:31;87110.60;;;5.90
74539;BMP180;63087;51.086;-115.332;2022-09-09T09:31:08;87112.40;;;5.90
74539;BMP180;63087;51.086;-115.332;2022-09-09T09:33:53;87113.00;;;5.90
74539;BMP180;63087;51.086;-115.332;2022-09-09T09:36:37;87109.00;;;5.90
74539;BMP180;63087;51.086;-115.332;2022-09-09T09:39:06;87106.80;;;5.88
74539;BMP180;63087;51.086;-115.332;2022-09-09T09:41:41;87101.40;;;5.80
74539;BMP180;63087;51.086;-115.332;2022-09-09T09:44:28;87105.40;;;5.80
74539;BMP180;63087;51.086;-115.332;2022-09-09T09:47:22;87109.20;;;5.80
74539;BMP180;63087;51.086;-115.332;2022-09-09T09:49:59;87109.60;;;5.80
74539;BMP180;63087;51.086;-115.332;2022-09-09T09:52:29;87106.00;;;5.80
74539;BMP180;63087;51.086;-115.332;2022-09-09T09:54:59;87111.40;;;5.80
74539;BMP180;63087;51.086;-115.332;2022-09-09T09:57:33;87117.40;;;5.88
74539;BMP180;63087;51.086;-115.332;2022-09-09T10:02:46;87118.40;;;5.90
74539;BMP180;63087;51.086;-115.332;2022-09-09T10:05:36;87121.80;;;5.90
74539;BMP180;63087;51.086;-115.332;2022-09-09T10:08:12;87124.40;;;5.86
74539;BMP180;63087;51.086;-115.332;2022-09-09T10:10:52;87126.80;;;5.80
74539;BMP180;63087;51.086;-115.332;2022-09-09T10:14:04;87123.00;;;5.80
74539;BMP180;63087;51.086;-115.332;2022-09-09T10:17:12;87126.40;;;5.80
74539;BMP180;63087;51.086;-115.332;2022-09-09T10:22:33;87125.40;;;5.82
74539;BMP180;63087;51.086;-115.332;2022-09-09T10:25:43;87126.40;;;5.90
74539;BMP180;63087;51.086;-115.332;2022-09-09T10:31:25;87129.80;;;5.90
74539;BMP180;63087;51.086;-115.332;2022-09-09T10:35:02;87130.20;;;5.90
74539;BMP180;63087;51.086;-115.332;2022-09-09T10:38:57;87134.20;;;5.86
74539;BMP180;63087;51.086;-115.332;2022-09-09T10:52:43;87142.40;;;5.80
74539;BMP180;63087;51.086;-115.332;2022-09-09T10:55:25;87143.60;;;5.80
74539;BMP180;63087;51.086;-115.332;2022-09-09T10:58:01;87145.40;;;5.80
74539;BMP180;63087;51.086;-115.332;2022-09-09T11:00:45;87145.80;;;5.80
74539;BMP180;63087;51.086;-115.332;2022-09-09T11:03:20;87144.20;;;5.72
74539;BMP180;63087;51.086;-115.332;2022-09-09T11:06:19;87143.00;;;5.70
74539;BMP180;63087;51.086;-115.332;2022-09-09T11:08:48;87135.60;;;5.70
74539;BMP180;63087;51.086;-115.332;2022-09-09T11:11:54;87137.80;;;5.70
74539;BMP180;63087;51.086;-115.332;2022-09-09T11:14:45;87147.80;;;5.60
74539;BMP180;63087;51.086;-115.332;2022-09-09T11:17:33;87142.00;;;5.60
74539;BMP180;63087;51.086;-115.332;2022-09-09T11:20:02;87135.80;;;5.64
74539;BMP180;63087;51.086;-115.332;2022-09-09T11:22:48;87133.60;;;5.68
74539;BMP180;63087;51.086;-115.332;2022-09-09T11:25:30;87135.80;;;5.68
74539;BMP180;63087;51.086;-115.332;2022-09-09T11:28:08;87140.00;;;5.70
74539;BMP180;63087;51.086;-115.332;2022-09-09T11:42:22;87138.60;;;5.54
74539;BMP180;63087;51.086;-115.332;2022-09-09T11:44:51;87136.00;;;5.50
74539;BMP180;63087;51.086;-115.332;2022-09-09T11:47:26;87136.80;;;5.50
74539;BMP180;63087;51.086;-115.332;2022-09-09T11:50:31;87134.20;;;5.50
74539;BMP180;63087;51.086;-115.332;2022-09-09T11:53:19;87129.80;;;5.50
74539;BMP180;63087;51.086;-115.332;2022-09-09T11:55:47;87128.60;;;5.50
74539;BMP180;63087;51.086;-115.332;2022-09-09T11:58:18;87131.20;;;5.50
74539;BMP180;63087;51.086;-115.332;2022-09-09T12:00:49;87132.60;;;5.50
74539;BMP180;63087;51.086;-115.332;2022-09-09T12:03:48;87136.20;;;5.50
74539;BMP180;63087;51.086;-115.332;2022-09-09T12:06:41;87133.60;;;5.40
74539;BMP180;63087;51.086;-115.332;2022-09-09T12:09:25;87139.20;;;5.40
74539;BMP180;63087;51.086;-115.332;2022-09-09T12:12:06;87138.80;;;5.38
74539;BMP180;63087;51.086;-115.332;2022-09-09T12:17:58;87134.80;;;5.40
74539;BMP180;63087;51.086;-115.332;2022-09-09T12:20:37;87134.40;;;5.40
74539;BMP180;63087;51.086;-115.332;2022-09-09T12:23:31;87135.40;;;5.40
74539;BMP180;63087;51.086;-115.332;2022-09-09T12:29:22;87130.00;;;5.40
74539;BMP180;63087;51.086;-115.332;2022-09-09T12:37:46;87131.40;;;5.30
74539;BMP180;63087;51.086;-115.332;2022-09-09T12:40:31;87129.20;;;5.30
74539;BMP180;63087;51.086;-115.332;2022-09-09T12:43:22;87128.00;;;5.30
74539;BMP180;63087;51.086;-115.332;2022-09-09T12:46:02;87130.40;;;5.30
74539;BMP180;63087;51.086;-115.332;2022-09-09T12:48:40;87130.60;;;5.30
74539;BMP180;63087;51.086;-115.332;2022-09-09T12:51:38;87132.00;;;5.30
74539;BMP180;63087;51.086;-115.332;2022-09-09T12:54:05;87135.40;;;5.30
74539;BMP180;63087;51.086;-115.332;2022-09-09T12:56:33;87140.00;;;5.30
74539;BMP180;63087;51.086;-115.332;2022-09-09T12:59:01;87145.00;;;5.20
74539;BMP180;63087;51.086;-115.332;2022-09-09T13:01:32;87140.00;;;5.20
74539;BMP180;63087;51.086;-115.332;2022-09-09T13:04:15;87141.00;;;5.10
74539;BMP180;63087;51.086;-115.332;2022-09-09T13:06:46;87141.60;;;5.10
74539;BMP180;63087;51.086;-115.332;2022-09-09T13:09:13;87143.60;;;5.02
74539;BMP180;63087;51.086;-115.332;2022-09-09T13:11:50;87145.20;;;5.00
74539;BMP180;63087;51.086;-115.332;2022-09-09T13:14:32;87145.00;;;5.00
74539;BMP180;63087;51.086;-115.332;2022-09-09T13:17:24;87137.80;;;5.06
74539;BMP180;63087;51.086;-115.332;2022-09-09T13:19:53;87139.40;;;5.10
74539;BMP180;63087;51.086;-115.332;2022-09-09T13:22:35;87142.00;;;5.10
74539;BMP180;63087;51.086;-115.332;2022-09-09T13:27:39;87141.80;;;5.10
74539;BMP180;63087;51.086;-115.332;2022-09-09T13:30:37;87142.20;;;5.10
74539;BMP180;63087;51.086;-115.332;2022-09-09T13:35:56;87137.80;;;5.10
74539;BMP180;63087;51.086;-115.332;2022-09-09T13:38:24;87137.00;;;5.10
74539;BMP180;63087;51.086;-115.332;2022-09-09T13:40:56;87134.00;;;5.10
74539;BMP180;63087;51.086;-115.332;2022-09-09T13:43:26;87136.80;;;5.18
74539;BMP180;63087;51.086;-115.332;2022-09-09T13:46:03;87140.60;;;5.18
74539;BMP180;63087;51.086;-115.332;2022-09-09T13:48:31;87138.60;;;5.10
74539;BMP180;63087;51.086;-115.332;2022-09-09T13:51:04;87140.80;;;5.10
74539;BMP180;63087;51.086;-115.332;2022-09-09T13:53:36;87140.60;;;5.10
74539;BMP180;63087;51.086;-115.332;2022-09-09T13:56:03;87141.20;;;5.00
74539;BMP180;63087;51.086;-115.332;2022-09-09T13:58:33;87151.80;;;5.00
74539;BMP180;63087;51.086;-115.332;2022-09-09T14:01:00;87157.20;;;4.90
74539;BMP180;63087;51.086;-115.332;2022-09-09T14:03:31;87159.00;;;4.90
74539;BMP180;63087;51.086;-115.332;2022-09-09T14:05:58;87163.00;;;4.86
74539;BMP180;63087;51.086;-115.332;2022-09-09T14:08:27;87164.40;;;4.80
74539;BMP180;63087;51.086;-115.332;2022-09-09T14:11:07;87164.60;;;4.80
74539;BMP180;63087;51.086;-115.332;2022-09-09T14:13:37;87163.00;;;4.80
74539;BMP180;63087;51.086;-115.332;2022-09-09T14:16:05;87167.80;;;4.80
74539;BMP180;63087;51.086;-115.332;2022-09-09T14:18:32;87163.20;;;4.80
74539;BMP180;63087;51.086;-115.332;2022-09-09T14:21:00;87157.00;;;4.80
74539;BMP180;63087;51.086;-115.332;2022-09-09T14:23:28;87157.00;;;4.72
74539;BMP180;63087;51.086;-115.332;2022-09-09T14:25:56;87162.20;;;4.70
74539;BMP180;63087;51.086;-115.332;2022-09-09T14:28:23;87164.80;;;4.70
74539;BMP180;63087;51.086;-115.332;2022-09-09T14:30:52;87161.00;;;4.64
74539;BMP180;63087;51.086;-115.332;2022-09-09T14:33:19;87167.20;;;4.66
74539;BMP180;63087;51.086;-115.332;2022-09-09T14:35:46;87169.80;;;4.64
74539;BMP180;63087;51.086;-115.332;2022-09-09T14:38:14;87175.80;;;4.60
74539;BMP180;63087;51.086;-115.332;2022-09-09T14:40:41;87171.80;;;4.66
74539;BMP180;63087;51.086;-115.332;2022-09-09T14:43:12;87175.60;;;4.70
74539;BMP180;63087;51.086;-115.332;2022-09-09T14:45:40;87180.60;;;4.80
74539;BMP180;63087;51.086;-115.332;2022-09-09T14:48:07;87177.80;;;4.80
74539;BMP180;63087;51.086;-115.332;2022-09-09T14:50:44;87179.20;;;4.90
74539;BMP180;63087;51.086;-115.332;2022-09-09T14:53:11;87175.80;;;4.90
74539;BMP180;63087;51.086;-115.332;2022-09-09T14:55:38;87177.80;;;5.00
74539;BMP180;63087;51.086;-115.332;2022-09-09T14:58:05;87178.60;;;5.08
74539;BMP180;63087;51.086;-115.332;2022-09-09T15:00:32;87181.00;;;5.10
74539;BMP180;63087;51.086;-115.332;2022-09-09T15:03:00;87181.60;;;5.12
74539;BMP180;63087;51.086;-115.332;2022-09-09T15:05:28;87186.40;;;5.24
74539;BMP180;63087;51.086;-115.332;2022-09-09T15:07:55;87191.20;;;5.34
74539;BMP180;63087;51.086;-115.332;2022-09-09T15:10:23;87196.20;;;5.48
74539;BMP180;63087;51.086;-115.332;2022-09-09T15:12:50;87195.80;;;5.50
74539;BMP180;63087;51.086;-115.332;2022-09-09T15:15:17;87196.60;;;5.56
74539;BMP180;63087;51.086;-115.332;2022-09-09T15:17:44;87198.40;;;5.60
74539;BMP180;63087;51.086;-115.332;2022-09-09T15:20:11;87204.00;;;5.70
74539;BMP180;63087;51.086;-115.332;2022-09-09T15:22:38;87205.20;;;5.80
74539;BMP180;63087;51.086;-115.332;2022-09-09T15:25:07;87203.60;;;5.98
74539;BMP180;63087;51.086;-115.332;2022-09-09T15:27:34;87200.20;;;6.18
74539;BMP180;63087;51.086;-115.332;2022-09-09T15:30:02;87202.40;;;6.28
74539;BMP180;63087;51.086;-115.332;2022-09-09T15:32:29;87206.00;;;6.30
74539;BMP180;63087;51.086;-115.332;2022-09-09T15:34:56;87205.80;;;6.40
74539;BMP180;63087;51.086;-115.332;2022-09-09T15:37:23;87204.00;;;6.40
74539;BMP180;63087;51.086;-115.332;2022-09-09T15:39:50;87200.80;;;6.42
74539;BMP180;63087;51.086;-115.332;2022-09-09T15:42:18;87203.40;;;6.50
74539;BMP180;63087;51.086;-115.332;2022-09-09T15:44:45;87198.20;;;6.60
74539;BMP180;63087;51.086;-115.332;2022-09-09T15:47:12;87202.00;;;6.70
74539;BMP180;63087;51.086;-115.332;2022-09-09T15:49:39;87201.40;;;6.80
74539;BMP180;63087;51.086;-115.332;2022-09-09T15:52:09;87194.40;;;6.80
74539;BMP180;63087;51.086;-115.332;2022-09-09T15:54:37;87193.20;;;6.80
74539;BMP180;63087;51.086;-115.332;2022-09-09T15:57:09;87191.80;;;6.70
74539;BMP180;63087;51.086;-115.332;2022-09-09T15:59:39;87185.60;;;6.70
74539;BMP180;63087;51.086;-115.332;2022-09-09T16:02:06;87174.20;;;6.70
74539;BMP180;63087;51.086;-115.332;2022-09-09T16:04:34;87176.00;;;6.62
74539;BMP180;63087;51.086;-115.332;2022-09-09T16:07:04;87172.40;;;6.60
74539;BMP180;63087;51.086;-115.332;2022-09-09T16:09:32;87172.60;;;6.60
74539;BMP180;63087;51.086;-115.332;2022-09-09T16:12:02;87172.20;;;6.50